Time;durP1;ratioP1;P1;durP2;ratioP2;P2;SDS_P1;SDS_P2;PMS_P1;PMS_P2;Temp;Humidity;BMP_temperature;BMP_pressure;BME280_temperature;BME280_humidity;BME280_pressure;Samples;Min_cycle;Max_cycle;Signal;HPM_P1;HPM_P2
2023/07/14 00:00:21;;;;;;;0.50;0.50;;;15.40;74.20;;;;;;4826106;29;20132;-83
2023/07/14 00:02:50;;;;;;;0.28;0.28;;;15.40;78.50;;;;;;4842501;29;20111;-83
2023/07/14 00:05:19;;;;;;;0.80;0.50;;;15.30;78.40;;;;;;4825620;29;20088;-83
2023/07/14 00:07:50;;;;;;;0.52;0.52;;;15.30;78.20;;;;;;4842137;29;20049;-83
2023/07/14 00:10:30;;;;;;;0.90;0.63;;;15.30;80.10;;;;;;4841869;29;20113;-83
2023/07/14 00:13:02;;;;;;;0.22;0.22;;;15.30;78.80;;;;;;4811029;29;20050;-83
2023/07/14 00:15:30;;;;;;;0.50;0.50;;;15.30;75.90;;;;;;4825774;29;20050;-83
2023/07/14 00:18:00;;;;;;;0.30;0.30;;;15.20;76.80;;;;;;4810956;29;20136;-83
2023/07/14 00:20:28;;;;;;;0.60;0.60;;;15.10;75.50;;;;;;4841927;29;20050;-83
2023/07/14 00:22:55;;;;;;;0.60;0.60;;;15.10;78.20;;;;;;4810794;29;20061;-82
2023/07/14 00:25:23;;;;;;;1.10;1.08;;;15.00;79.90;;;;;;4840494;29;20129;-82
2023/07/14 00:27:50;;;;;;;1.92;0.65;;;15.00;79.50;;;;;;4841589;29;20050;-82
2023/07/14 00:30:18;;;;;;;0.90;0.90;;;15.00;79.80;;;;;;4825464;29;20056;-83
2023/07/14 00:32:46;;;;;;;0.85;0.50;;;15.00;82.20;;;;;;4841841;29;20093;-83
2023/07/14 00:35:23;;;;;;;0.40;0.40;;;15.00;83.40;;;;;;4841580;29;20081;-83
2023/07/14 00:37:51;;;;;;;0.77;0.63;;;15.00;87.20;;;;;;4825735;29;20098;-83
2023/07/14 00:40:21;;;;;;;0.75;0.75;;;15.00;84.30;;;;;;4825431;29;20136;-82
2023/07/14 00:42:51;;;;;;;1.63;1.10;;;14.90;86.90;;;;;;4826035;29;20058;-83
2023/07/14 00:45:21;;;;;;;0.50;0.50;;;14.90;86.00;;;;;;4841927;29;20042;-83
2023/07/14 00:47:52;;;;;;;1.02;0.60;;;14.80;85.80;;;;;;4842139;29;20136;-83
2023/07/14 00:50:54;;;;;;;0.82;0.77;;;14.90;86.80;;;;;;4841830;29;20058;-83
2023/07/14 00:53:46;;;;;;;0.70;0.70;;;14.80;91.20;;;;;;4825922;29;20046;-82
2023/07/14 00:56:14;;;;;;;0.57;0.57;;;14.90;91.10;;;;;;4825031;29;20085;-83
2023/07/14 00:58:49;;;;;;;0.47;0.47;;;14.90;91.00;;;;;;4826080;29;20556;-82
2023/07/14 01:01:22;;;;;;;0.82;0.82;;;14.90;91.10;;;;;;4839844;29;20060;-83
2023/07/14 01:03:51;;;;;;;0.68;0.68;;;14.90;91.60;;;;;;4840728;29;20492;-82
2023/07/14 01:06:21;;;;;;;0.73;0.70;;;14.90;91.00;;;;;;4825426;29;20056;-83
2023/07/14 01:08:54;;;;;;;0.95;0.80;;;14.90;90.10;;;;;;4825513;29;20535;-82
2023/07/14 01:11:26;;;;;;;0.80;0.77;;;14.80;89.40;;;;;;4840601;29;20463;-83
2023/07/14 01:13:52;;;;;;;0.65;0.55;;;14.90;91.20;;;;;;4824948;29;20049;-83
2023/07/14 01:16:18;;;;;;;0.98;0.82;;;14.80;89.70;;;;;;4840880;29;20459;-82
2023/07/14 01:18:46;;;;;;;0.75;0.68;;;14.70;88.10;;;;;;4825243;29;20060;-82
2023/07/14 01:21:12;;;;;;;0.63;0.63;;;14.70;89.90;;;;;;4841048;29;20089;-83
2023/07/14 01:24:06;;;;;;;0.80;0.63;;;14.70;88.40;;;;;;4841487;29;20460;-82
2023/07/14 01:27:04;;;;;;;1.23;1.13;;;14.70;91.20;;;;;;4840419;29;20506;-83
2023/07/14 01:29:31;;;;;;;0.93;0.80;;;14.70;92.10;;;;;;4841209;29;20061;-82
2023/07/14 01:31:57;;;;;;;;;;;14.70;91.70;;;;;;4842004;29;20054;-83
2023/07/14 01:34:23;;;;;;;0.57;0.57;;;14.60;93.00;;;;;;4824765;29;20459;-83
2023/07/14 01:36:49;;;;;;;1.40;1.30;;;14.50;90.40;;;;;;4841300;29;20209;-82
2023/07/14 01:39:16;;;;;;;0.70;0.63;;;14.50;90.40;;;;;;4825050;29;20403;-83
2023/07/14 01:41:42;;;;;;;0.77;0.77;;;14.40;90.10;;;;;;4824857;29;20458;-83
2023/07/14 01:44:16;;;;;;;1.13;0.60;;;14.40;91.10;;;;;;4840080;29;20073;-83
2023/07/14 01:46:42;;;;;;;0.70;0.70;;;14.40;92.40;;;;;;4824983;29;20298;-82
2023/07/14 01:49:16;;;;;;;1.05;0.73;;;14.40;91.90;;;;;;4841258;29;20415;-83
2023/07/14 01:51:45;;;;;;;0.60;0.60;;;14.40;91.80;;;;;;4824963;29;20046;-82
2023/07/14 01:54:35;;;;;;;1.10;1.00;;;14.40;91.40;;;;;;4840786;29;20525;-83
2023/07/14 01:57:05;;;;;;;0.82;0.80;;;14.40;91.90;;;;;;4841344;29;20050;-83
2023/07/14 01:59:35;;;;;;;0.50;0.50;;;14.40;91.00;;;;;;4824721;29;20056;-83
2023/07/14 02:02:03;;;;;;;0.63;0.63;;;14.40;90.40;;;;;;4809777;29;20049;-83
2023/07/14 02:04:33;;;;;;;0.90;0.85;;;14.40;90.00;;;;;;4840624;29;20053;-83
2023/07/14 02:07:01;;;;;;;1.13;1.02;;;14.30;90.50;;;;;;4841283;29;20129;-83
2023/07/14 02:09:29;;;;;;;0.57;0.57;;;14.30;91.60;;;;;;4840682;29;20422;-83
2023/07/14 02:12:01;;;;;;;1.00;0.80;;;14.30;91.80;;;;;;4841692;29;20062;-83
2023/07/14 02:14:40;;;;;;;0.95;0.77;;;14.30;91.90;;;;;;4843963;29;20053;-83
2023/07/14 02:17:17;;;;;;;0.80;0.80;;;14.30;92.80;;;;;;4812823;29;20064;-83
2023/07/14 02:19:43;;;;;;;0.50;0.50;;;14.30;92.70;;;;;;4812656;29;20068;-83
2023/07/14 02:22:09;;;;;;;0.70;0.70;;;14.30;92.40;;;;;;4843003;29;20133;-83
2023/07/14 02:24:35;;;;;;;0.60;0.60;;;14.30;92.40;;;;;;4827533;29;20081;-83
2023/07/14 02:27:03;;;;;;;0.93;0.73;;;14.30;92.50;;;;;;4827593;29;20093;-83
2023/07/14 02:29:30;;;;;;;0.50;0.50;;;14.20;91.60;;;;;;4843582;29;20069;-83
2023/07/14 02:31:58;;;;;;;;;;;14.20;92.40;;;;;;4844382;29;20099;-83
2023/07/14 02:34:30;;;;;;;1.90;0.90;;;14.20;95.30;;;;;;4842204;29;19924;-83
2023/07/14 02:37:03;;;;;;;1.88;0.95;;;14.20;94.30;;;;;;4827561;29;20053;-83
2023/07/14 02:39:34;;;;;;;0.85;0.85;;;14.10;93.60;;;;;;4826870;29;20085;-83
2023/07/14 02:42:00;;;;;;;0.47;0.47;;;14.20;93.20;;;;;;4827636;29;20065;-82
2023/07/14 02:44:37;;;;;;;1.13;1.00;;;14.10;92.90;;;;;;4842770;29;20052;-83
2023/07/14 02:47:12;;;;;;;0.60;0.55;;;14.20;93.80;;;;;;4827854;29;20110;-83
2023/07/14 02:49:39;;;;;;;1.58;1.48;;;14.10;93.30;;;;;;4843916;29;20105;-83
2023/07/14 02:52:05;;;;;;;;;;;14.10;93.00;;;;;;4843687;29;20041;-83
2023/07/14 02:54:30;;;;;;;0.80;0.80;;;14.10;95.90;;;;;;4827524;29;20452;-83
2023/07/14 02:56:56;;;;;;;0.73;0.73;;;14.10;94.30;;;;;;4844040;29;20102;-82
2023/07/14 02:59:22;;;;;;;1.17;0.93;;;14.00;93.80;;;;;;4827901;29;20145;-83
2023/07/14 03:01:48;;;;;;;0.70;0.70;;;14.00;94.00;;;;;;4842514;29;20056;-83
2023/07/14 03:04:14;;;;;;;;;;;14.00;93.80;;;;;;4827962;29;20160;-83
2023/07/14 03:06:39;;;;;;;0.63;0.63;;;14.00;96.50;;;;;;4827116;29;19935;-83
2023/07/14 03:09:05;;;;;;;0.63;0.50;;;14.00;94.70;;;;;;4842231;29;20109;-83
2023/07/14 03:11:31;;;;;;;0.73;0.73;;;14.00;93.70;;;;;;4826773;29;20053;-83
2023/07/14 03:13:56;;;;;;;1.13;1.00;;;14.00;93.80;;;;;;4811900;29;20050;-84
2023/07/14 03:16:22;;;;;;;0.80;0.80;;;14.00;93.70;;;;;;4842145;29;20064;-83
2023/07/14 03:18:48;;;;;;;0.63;0.60;;;14.00;93.90;;;;;;4841724;29;20042;-83
2023/07/14 03:21:14;;;;;;;0.73;0.63;;;13.90;93.50;;;;;;4843143;29;20283;-83
2023/07/14 03:23:39;;;;;;;0.98;0.70;;;14.00;93.90;;;;;;4841983;29;20057;-83
2023/07/14 03:26:07;;;;;;;2.50;1.05;;;13.90;93.10;;;;;;4826845;29;20128;-83
2023/07/14 03:28:34;;;;;;;1.65;0.95;;;13.90;93.20;;;;;;4826146;29;20149;-83
2023/07/14 03:31:03;;;;;;;0.80;0.80;;;13.90;92.70;;;;;;4826774;29;20050;-83
2023/07/14 03:33:30;;;;;;;0.80;0.80;;;13.90;93.10;;;;;;4842892;29;20141;-83
2023/07/14 03:36:00;;;;;;;1.13;1.08;;;13.90;92.90;;;;;;4841989;29;20054;-83
2023/07/14 03:38:25;;;;;;;0.90;0.90;;;14.00;92.50;;;;;;4841734;29;20098;-83
2023/07/14 03:40:51;;;;;;;0.77;0.60;;;13.90;92.10;;;;;;4842512;29;20069;-82
2023/07/14 03:43:17;;;;;;;0.90;0.60;;;13.90;92.80;;;;;;4842655;29;20137;-82
2023/07/14 03:45:42;;;;;;;1.08;0.98;;;13.90;92.60;;;;;;4842145;29;20096;-83
2023/07/14 03:48:08;;;;;;;0.83;0.77;;;13.90;92.60;;;;;;4842502;29;20433;-82
2023/07/14 03:50:34;;;;;;;1.03;0.93;;;13.90;92.60;;;;;;4825792;29;20072;-84
2023/07/14 03:53:00;;;;;;;0.95;0.88;;;13.90;92.40;;;;;;4826320;29;20479;-82
2023/07/14 03:55:26;;;;;;;1.40;1.30;;;13.80;92.60;;;;;;4826244;29;20057;-83
2023/07/14 03:57:51;;;;;;;0.70;0.70;;;13.80;93.00;;;;;;4840889;29;20041;-83
2023/07/14 04:00:17;;;;;;;0.43;0.40;;;13.80;93.50;;;;;;4826021;29;20132;-83
2023/07/14 04:02:45;;;;;;;0.90;0.70;;;13.80;93.50;;;;;;4810810;29;20298;-83
2023/07/14 04:05:12;;;;;;;2.13;1.48;;;13.80;94.10;;;;;;4842393;29;20512;-83
2023/07/14 04:07:40;;;;;;;0.55;0.55;;;13.80;93.20;;;;;;4810875;29;20139;-83
2023/07/14 04:10:08;;;;;;;0.73;0.73;;;13.80;93.50;;;;;;4827413;29;20050;-83
2023/07/14 04:12:34;;;;;;;0.63;0.52;;;13.80;94.40;;;;;;4826118;29;20086;-83
2023/07/14 04:15:00;;;;;;;1.02;0.93;;;13.80;94.10;;;;;;4826086;29;20095;-83
2023/07/14 04:17:27;;;;;;;0.80;0.60;;;13.80;94.20;;;;;;4825913;29;20058;-83
2023/07/14 04:19:52;;;;;;;;;;;13.80;94.10;;;;;;4840579;29;20423;-83
2023/07/14 04:22:19;;;;;;;0.95;0.95;;;13.80;97.00;;;;;;4841324;29;19925;-82
2023/07/14 04:24:45;;;;;;;1.60;0.82;;;13.80;95.30;;;;;;4840685;29;20555;-82
2023/07/14 04:27:12;;;;;;;0.30;0.20;;;13.70;94.80;;;;;;4825575;29;20107;-83
2023/07/14 04:29:39;;;;;;;1.17;0.60;;;13.80;94.80;;;;;;4825732;29;20090;-84
2023/07/14 04:32:06;;;;;;;1.98;0.73;;;13.80;95.10;;;;;;4825937;29;20054;-83
2023/07/14 04:34:33;;;;;;;0.50;0.50;;;13.80;95.30;;;;;;4825552;29;20057;-87
2023/07/14 04:37:01;;;;;;;0.50;0.50;;;13.80;94.80;;;;;;4840475;29;20058;-86
2023/07/14 04:39:27;;;;;;;0.85;0.55;;;13.80;94.80;;;;;;4825784;29;20563;-90
2023/07/14 04:41:54;;;;;;;0.87;0.87;;;13.90;94.50;;;;;;4840311;29;20100;-84
2023/07/14 04:44:20;;;;;;;1.48;1.38;;;13.90;95.30;;;;;;4825996;29;20061;-81
2023/07/14 04:46:46;;;;;;;0.50;0.50;;;13.90;95.20;;;;;;4840729;29;20050;-82
2023/07/14 04:49:14;;;;;;;0.95;0.77;;;14.00;95.30;;;;;;4842248;29;20298;-82
2023/07/14 04:51:41;;;;;;;0.80;0.75;;;14.00;94.90;;;;;;4810605;29;20046;-82
2023/07/14 04:54:06;;;;;;;1.08;0.85;;;14.10;95.30;;;;;;4825584;29;20077;-82
2023/07/14 04:56:34;;;;;;;0.57;0.45;;;14.10;95.50;;;;;;4825547;29;20141;-82
2023/07/14 04:59:00;;;;;;;0.65;0.50;;;14.10;95.20;;;;;;4841148;29;20189;-82
2023/07/14 05:01:27;;;;;;;0.57;0.57;;;14.20;95.40;;;;;;4825697;29;20518;-82
2023/07/14 05:03:53;;;;;;;0.80;0.70;;;14.20;95.90;;;;;;4825269;29;20057;-82
2023/07/14 05:06:19;;;;;;;0.65;0.65;;;14.30;96.00;;;;;;4841791;29;20052;-83
2023/07/14 05:08:45;;;;;;;0.60;0.60;;;14.40;95.90;;;;;;4841118;29;20396;-83
2023/07/14 05:11:11;;;;;;;1.57;0.90;;;14.50;96.40;;;;;;4825330;29;20054;-82
2023/07/14 05:13:36;;;;;;;0.60;0.60;;;14.60;96.00;;;;;;4825409;29;20287;-82
2023/07/14 05:16:02;;;;;;;0.60;0.60;;;14.90;95.70;;;;;;4825362;29;20499;-83
2023/07/14 05:18:28;;;;;;;1.13;1.02;;;15.40;94.60;;;;;;4825543;29;20049;-82
2023/07/14 05:21:03;;;;;;;1.13;0.83;;;15.80;92.60;;;;;;4840347;29;20054;-86
2023/07/14 05:23:29;;;;;;;0.93;0.82;;;16.10;90.30;;;;;;4841818;29;20053;-81
2023/07/14 05:25:55;;;;;;;0.85;0.73;;;16.40;81.50;;;;;;4839998;29;20456;-81
2023/07/14 05:28:21;;;;;;;0.50;0.50;;;16.50;78.30;;;;;;4824396;29;20418;-82
2023/07/14 05:30:47;;;;;;;0.30;0.30;;;16.50;73.60;;;;;;4825086;29;20072;-81
2023/07/14 05:33:16;;;;;;;0.40;0.40;;;16.50;68.70;;;;;;4825491;29;20054;-81
2023/07/14 05:35:42;;;;;;;0.98;0.90;;;16.40;67.90;;;;;;4825811;29;20058;-81
2023/07/14 05:38:14;;;;;;;0.60;0.40;;;16.40;71.40;;;;;;4825190;29;20121;-82
2023/07/14 05:40:40;;;;;;;0.70;0.70;;;16.30;75.00;;;;;;4825910;29;20049;-82
2023/07/14 05:43:05;;;;;;;0.47;0.47;;;16.30;71.00;;;;;;4825585;29;20133;-81
2023/07/14 05:45:31;;;;;;;0.82;0.50;;;16.30;82.00;;;;;;4825907;29;20552;-82
2023/07/14 05:47:58;;;;;;;0.93;0.50;;;16.20;79.10;;;;;;4842631;29;20505;-82
2023/07/14 05:50:24;;;;;;;;;;;16.30;79.90;;;;;;4829309;29;20102;-81
2023/07/14 05:52:50;;;;;;;1.35;0.55;;;16.30;92.00;;;;;;4828824;29;19989;-82
2023/07/14 05:55:16;;;;;;;0.50;0.43;;;16.40;85.20;;;;;;4829284;29;20041;-81
2023/07/14 05:57:43;;;;;;;0.43;0.43;;;16.40;82.20;;;;;;4814052;29;20045;-81
2023/07/14 06:00:16;;;;;;;0.70;0.55;;;16.50;81.40;;;;;;4828038;29;20065;-84
2023/07/14 06:02:43;;;;;;;0.70;0.52;;;16.50;84.80;;;;;;4828906;29;20053;-82
2023/07/14 06:05:09;;;;;;;0.70;0.70;;;16.60;84.50;;;;;;4828322;29;20057;-82
2023/07/14 06:07:35;;;;;;;;;;;16.70;80.80;;;;;;4845540;29;20057;-82
2023/07/14 06:10:01;;;;;;;0.70;0.47;;;16.60;90.60;;;;;;4844628;29;19928;-82
2023/07/14 06:12:27;;;;;;;2.00;1.02;;;16.60;81.50;;;;;;4813920;29;20057;-82
2023/07/14 06:14:53;;;;;;;0.40;0.40;;;16.70;83.40;;;;;;4828363;29;20058;-85
2023/07/14 06:17:18;;;;;;;0.80;0.80;;;16.80;88.00;;;;;;4829008;29;20096;-82
2023/07/14 06:19:44;;;;;;;0.63;0.63;;;16.90;82.40;;;;;;4828633;29;20092;-83
2023/07/14 06:22:10;;;;;;;0.80;0.47;;;16.90;81.10;;;;;;4844641;29;20061;-83
2023/07/14 06:24:35;;;;;;;1.30;1.10;;;17.00;78.60;;;;;;4828787;29;20491;-82
2023/07/14 06:27:03;;;;;;;1.50;1.03;;;17.10;79.30;;;;;;4843272;29;20671;-83
2023/07/14 06:29:29;;;;;;;1.73;1.38;;;17.10;81.10;;;;;;4843584;29;20491;-83
2023/07/14 06:31:55;;;;;;;1.20;0.85;;;17.30;83.30;;;;;;4843003;29;20053;-84
2023/07/14 06:34:21;;;;;;;1.00;0.77;;;17.40;86.90;;;;;;4828482;29;20046;-83
2023/07/14 06:36:46;;;;;;;1.00;0.60;;;17.50;82.00;;;;;;4828408;29;20058;-83
2023/07/14 06:39:12;;;;;;;0.63;0.63;;;17.60;80.30;;;;;;4827791;29;20633;-84
2023/07/14 06:41:38;;;;;;;3.60;0.90;;;17.80;76.90;;;;;;4828223;29;20377;-83
2023/07/14 06:44:04;;;;;;;1.15;0.77;;;17.90;75.90;;;;;;4827954;29;20053;-84
2023/07/14 06:46:30;;;;;;;2.20;0.45;;;18.00;70.30;;;;;;4828473;29;20085;-83
2023/07/14 06:48:57;;;;;;;0.80;0.68;;;18.10;65.70;;;;;;4812316;29;20191;-84
2023/07/14 06:51:24;;;;;;;0.50;0.43;;;18.20;59.80;;;;;;4827991;29;20463;-87
2023/07/14 06:53:49;;;;;;;;;;;18.20;58.30;;;;;;4828250;29;20132;-86
2023/07/14 06:56:16;;;;;;;0.50;0.43;;;18.30;57.40;;;;;;4827728;29;20064;-83
2023/07/14 06:58:41;;;;;;;0.63;0.60;;;18.40;47.90;;;;;;4842160;29;20409;-82
2023/07/14 07:01:07;;;;;;;0.32;0.32;;;18.50;49.30;;;;;;4827658;29;20060;-81
2023/07/14 07:03:34;;;;;;;0.80;0.80;;;18.30;42.60;;;;;;4827911;29;20057;-81
2023/07/14 07:06:00;;;;;;;0.50;0.47;;;18.60;43.00;;;;;;4827485;29;20547;-82
2023/07/14 07:08:26;;;;;;;0.60;0.60;;;18.60;30.40;;;;;;4827744;29;20102;-82
2023/07/14 07:10:52;;;;;;;0.40;0.40;;;18.70;24.80;;;;;;4812646;29;20053;-82
2023/07/14 07:13:18;;;;;;;0.40;0.40;;;18.70;25.20;;;;;;4812270;29;20076;-82
2023/07/14 07:15:44;;;;;;;;;;;18.80;27.20;;;;;;4827762;29;20057;-81
2023/07/14 07:18:10;;;;;;;0.65;0.20;;;18.80;22.80;;;;;;4827479;29;19924;-82
2023/07/14 07:20:37;;;;;;;0.40;0.38;;;18.90;15.60;;;;;;4812497;29;20487;-81
2023/07/14 07:23:03;;;;;;;0.52;0.30;;;18.90;9.70;;;;;;4827280;29;20510;-83
2023/07/14 07:25:30;;;;;;;0.30;0.30;;;19.00;7.30;;;;;;4812374;29;20103;-85
2023/07/14 07:27:55;;;;;;;0.40;0.40;;;19.00;2.60;;;;;;4842222;29;20066;-86
2023/07/14 07:30:21;;;;;;;0.40;0.40;;;19.00;4.20;;;;;;4827660;29;20141;-89
2023/07/14 07:32:47;;;;;;;1.05;0.65;;;19.10;3.80;;;;;;4827740;29;20049;-87
2023/07/14 07:35:13;;;;;;;1.05;0.45;;;19.10;1.00;;;;;;4811919;29;20085;-86
2023/07/14 07:37:39;;;;;;;;;;;19.20;1.00;;;;;;4812023;29;20571;-87
2023/07/14 07:40:11;;;;;;;1.55;0.60;;;19.20;1.00;;;;;;4826793;29;20019;-87
2023/07/14 07:42:40;;;;;;;0.77;0.70;;;19.30;1.00;;;;;;4812099;29;20045;-87
2023/07/14 07:45:09;;;;;;;0.88;0.75;;;19.40;1.00;;;;;;4811910;29;20109;-87
2023/07/14 07:47:50;;;;;;;0.80;0.80;;;19.30;1.00;;;;;;4812041;29;20057;-87
2023/07/14 07:50:16;;;;;;;1.25;0.80;;;19.40;1.00;;;;;;4826972;29;20076;-87
2023/07/14 07:52:49;;;;;;;0.43;0.43;;;19.40;1.00;;;;;;4827217;29;20451;-87
2023/07/14 07:55:23;;;;;;;0.50;0.50;;;19.40;1.00;;;;;;4811734;29;20085;-86
2023/07/14 07:57:56;;;;;;;0.40;0.40;;;19.40;1.00;;;;;;4812100;29;20137;-87
2023/07/14 08:00:27;;;;;;;1.23;0.80;;;18.60;1.00;;;;;;4826797;29;20054;-88
2023/07/14 08:02:56;;;;;;;3.60;0.80;;;19.40;1.00;;;;;;4826766;29;20061;-90
2023/07/14 08:05:24;;;;;;;0.47;0.47;;;19.50;1.00;;;;;;4811554;29;20276;-93
2023/07/14 08:07:52;;;;;;;0.30;0.30;;;19.50;1.00;;;;;;4827097;29;20050;-92
2023/07/14 08:10:17;;;;;;;0.57;0.57;;;19.60;1.00;;;;;;4826445;29;20049;-92
2023/07/14 08:12:43;;;;;;;0.55;0.55;;;19.70;1.00;;;;;;4826603;29;20057;-92
2023/07/14 08:15:10;;;;;;;0.52;0.45;;;19.70;1.00;;;;;;4826674;29;20110;-93
2023/07/14 08:17:57;;;;;;;0.30;0.30;;;19.90;1.00;;;;;;4830896;29;20056;-90
2023/07/14 08:20:23;;;;;;;0.47;0.40;;;19.80;99.90;;;;;;4826841;29;20057;-88
2023/07/14 08:22:48;;;;;;;0.40;0.20;;;20.00;1.00;;;;;;4841961;29;20073;-90
2023/07/14 08:25:21;;;;;;;0.47;0.45;;;20.00;1.00;;;;;;4811414;29;20045;-89
2023/07/14 08:27:53;;;;;;;0.35;0.35;;;20.00;99.90;;;;;;4826458;29;20061;-90
2023/07/14 08:30:19;;;;;;;0.50;0.30;;;20.00;99.90;;;;;;4841419;29;20121;-90
2023/07/14 08:32:57;;;;;;;0.20;0.20;;;20.00;99.90;;;;;;4841665;29;20491;-90
2023/07/14 08:35:23;;;;;;;0.30;0.30;;;20.10;99.90;;;;;;4826543;29;20054;-90
2023/07/14 08:37:59;;;;;;;;;;;;;;;;;;;;;
2023/07/14 08:40:38;;;;;;;0.80;0.68;;;19.50;99.90;;;;;;4826404;29;20054;-89
2023/07/14 08:43:11;;;;;;;0.43;0.43;;;20.30;99.90;;;;;;4826710;29;20050;-89
2023/07/14 08:45:46;;;;;;;0.32;0.32;;;20.40;99.90;;;;;;4829721;29;20121;-90
2023/07/14 08:48:37;;;;;;;0.43;0.30;;;20.30;1.00;;;;;;4825697;29;20514;-88
2023/07/14 08:51:19;;;;;;;0.35;0.20;;;20.30;1.00;;;;;;4826394;29;20061;-88
2023/07/14 08:53:51;;;;;;;1.02;1.00;;;20.50;1.00;;;;;;4810857;29;20523;-89
2023/07/14 08:56:19;;;;;;;0.43;0.43;;;20.10;99.90;;;;;;4810652;29;20083;-88
2023/07/14 08:58:50;;;;;;;0.30;0.30;;;19.30;99.90;;;;;;4826147;29;20056;-88
2023/07/14 09:01:36;;;;;;;0.57;0.57;;;20.00;99.90;;;;;;4826158;29;20101;-89
2023/07/14 09:04:16;;;;;;;0.30;0.25;;;19.90;99.90;;;;;;4826651;29;20056;-89
2023/07/14 09:06:47;;;;;;;0.75;0.40;;;19.80;1.00;;;;;;4826930;29;20042;-89
2023/07/14 09:09:43;;;;;;;0.80;0.40;;;19.80;99.90;;;;;;4810867;29;20126;-90
2023/07/14 09:12:28;;;;;;;0.32;0.30;;;19.70;99.90;;;;;;4826070;29;20050;-90
2023/07/14 09:15:24;;;;;;;0.40;0.30;;;19.80;1.90;;;;;;4825932;29;20053;-89
2023/07/14 09:18:17;;;;;;;0.20;0.20;;;19.50;99.90;;;;;;4824455;29;20061;-89
2023/07/14 09:21:21;;;;;;;0.55;0.40;;;18.70;37.00;;;;;;4826098;29;20065;-92
2023/07/14 09:24:24;;;;;;;0.22;0.22;;;19.60;6.00;;;;;;4829756;29;20057;-91
2023/07/14 09:26:55;;;;;;;0.75;0.32;;;19.80;99.90;;;;;;4829379;29;20069;-90
2023/07/14 09:29:34;;;;;;;0.45;0.45;;;19.90;1.00;;;;;;4828559;29;20053;-89
2023/07/14 09:32:04;;;;;;;0.30;0.30;;;19.80;99.90;;;;;;4829413;29;20054;-90
2023/07/14 09:34:40;;;;;;;0.32;0.32;;;19.80;1.00;;;;;;4829155;29;20050;-88
2023/07/14 09:37:22;;;;;;;0.20;0.20;;;19.80;99.90;;;;;;4814182;29;20046;-85
2023/07/14 09:39:57;;;;;;;0.28;0.28;;;19.80;99.90;;;;;;4829195;29;20297;-85
2023/07/14 09:42:29;;;;;;;0.30;0.30;;;19.70;99.90;;;;;;4844336;29;20057;-88
2023/07/14 09:45:08;;;;;;;0.20;0.20;;;19.70;1.00;;;;;;4829310;29;20069;-88
2023/07/14 09:47:35;;;;;;;0.20;0.20;;;19.80;91.20;;;;;;4813728;29;20092;-89
2023/07/14 09:50:04;;;;;;;0.10;0.10;;;20.00;4.90;;;;;;4829116;29;20057;-88
2023/07/14 09:52:30;;;;;;;0.20;0.20;;;20.20;1.00;;;;;;4828641;29;20049;-88
2023/07/14 09:55:00;;;;;;;0.43;0.43;;;20.30;99.90;;;;;;4829160;29;20065;-87
2023/07/14 09:57:30;;;;;;;0.30;0.30;;;20.50;99.90;;;;;;4813454;29;20053;-87
2023/07/14 09:59:59;;;;;;;0.20;0.20;;;20.60;72.90;;;;;;4828909;29;20050;-88
2023/07/14 10:02:32;;;;;;;0.40;0.22;;;20.60;99.90;;;;;;4813518;29;20133;-87
2023/07/14 10:05:21;;;;;;;0.20;0.20;;;20.70;99.90;;;;;;4814087;29;20058;-87
2023/07/14 10:07:47;;;;;;;0.30;0.30;;;20.80;99.90;;;;;;4828770;29;20061;-88
2023/07/14 10:10:15;;;;;;;0.95;0.35;;;20.80;1.00;;;;;;4813318;29;20089;-87
2023/07/14 10:12:51;;;;;;;0.43;0.20;;;20.90;99.90;;;;;;4828241;29;20471;-87
2023/07/14 10:15:35;;;;;;;0.75;0.63;;;21.00;99.90;;;;;;4828746;29;20095;-87
2023/07/14 10:18:12;;;;;;;0.25;0.25;;;21.20;1.00;;;;;;4828700;29;20053;-87
2023/07/14 10:21:05;;;;;;;0.47;0.47;;;21.30;99.90;;;;;;4828611;29;20121;-87
2023/07/14 10:23:32;;;;;;;0.20;0.20;;;21.40;99.90;;;;;;4813165;29;20086;-87
2023/07/14 10:25:58;;;;;;;0.38;0.38;;;21.60;99.90;;;;;;4828276;29;20062;-84
2023/07/14 10:28:28;;;;;;;0.38;0.38;;;21.50;91.00;;;;;;4827433;29;20046;-86
2023/07/14 10:31:29;;;;;;;0.35;0.30;;;21.50;1.00;;;;;;4813421;29;20419;-86
2023/07/14 10:34:14;;;;;;;0.32;0.32;;;21.30;1.00;;;;;;4814481;29;20062;-87
2023/07/14 10:36:40;;;;;;;0.32;0.32;;;21.10;97.80;;;;;;4826226;29;20137;-86
2023/07/14 10:39:29;;;;;;;0.43;0.43;;;21.10;99.90;;;;;;4828280;29;20062;-87
2023/07/14 10:41:56;;;;;;;0.32;0.32;;;21.20;99.90;;;;;;4828054;29;20085;-87
2023/07/14 10:44:37;;;;;;;0.43;0.43;;;21.20;1.00;;;;;;4827748;29;20410;-88
2023/07/14 10:47:15;;;;;;;0.20;0.20;;;21.20;1.00;;;;;;4827999;29;20522;-87
2023/07/14 10:49:46;;;;;;;0.40;0.40;;;21.10;99.90;;;;;;4827427;29;20050;-87
2023/07/14 10:52:18;;;;;;;0.20;0.20;;;21.20;99.90;;;;;;4813200;29;20053;-87
2023/07/14 10:54:49;;;;;;;0.28;0.25;;;21.10;1.00;;;;;;4812694;29;20057;-87
2023/07/14 10:57:56;;;;;;;0.25;0.17;;;21.20;99.90;;;;;;4828038;29;20050;-86
2023/07/14 11:00:54;;;;;;;0.38;0.38;;;21.20;99.90;;;;;;4820950;29;20482;-86
2023/07/14 11:03:40;;;;;;;0.70;0.40;;;21.20;99.90;;;;;;4820538;29;20108;-86
2023/07/14 11:06:20;;;;;;;3.45;0.60;;;21.20;99.90;;;;;;4827996;29;20054;-86
2023/07/14 11:08:57;;;;;;;0.40;0.30;;;21.50;99.90;;;;;;4827498;29;20090;-85
2023/07/14 11:11:46;;;;;;;;;;;21.00;99.90;;;;;;4828458;29;20060;-86
2023/07/14 11:14:25;;;;;;;0.25;0.22;;;21.00;94.60;;;;;;4806778;29;19977;-86
2023/07/14 11:17:14;;;;;;;0.20;0.20;;;21.20;99.90;;;;;;4827230;29;20050;-86
2023/07/14 11:19:59;;;;;;;0.57;0.50;;;21.50;1.00;;;;;;4812378;29;20053;-86
2023/07/14 11:22:59;;;;;;;0.28;0.20;;;21.70;1.00;;;;;;4827747;29;20053;-86
2023/07/14 11:26:01;;;;;;;0.32;0.32;;;21.90;99.90;;;;;;4827685;29;20049;-86
2023/07/14 11:28:51;;;;;;;0.75;0.60;;;21.90;99.90;;;;;;4826564;29;20503;-88
2023/07/14 11:31:35;;;;;;;0.45;0.32;;;21.90;99.90;;;;;;4827585;29;20085;-86
2023/07/14 11:34:26;;;;;;;1.63;0.30;;;21.70;99.90;;;;;;4812443;29;20499;-86
2023/07/14 11:36:55;;;;;;;0.25;0.25;;;21.60;99.90;;;;;;4812131;29;20054;-87
2023/07/14 11:39:32;;;;;;;0.30;0.30;;;21.50;1.00;;;;;;4842406;29;20499;-86
2023/07/14 11:41:58;;;;;;;;;;;21.50;99.90;;;;;;4827944;29;20140;-87
2023/07/14 11:44:23;;;;;;;0.50;0.40;;;21.40;99.90;;;;;;4826253;29;19979;-86
2023/07/14 11:46:50;;;;;;;0.63;0.60;;;21.50;10.50;;;;;;4827073;29;20057;-86
2023/07/14 11:49:36;;;;;;;0.35;0.20;;;21.60;99.90;;;;;;4827029;29;20052;-87
2023/07/14 11:52:19;;;;;;;0.20;0.20;;;20.80;99.90;;;;;;4827491;29;20050;-86
2023/07/14 11:54:58;;;;;;;0.40;0.38;;;21.50;1.00;;;;;;4811819;29;20124;-87
2023/07/14 11:57:33;;;;;;;;;;;;;;;;;;;;;
2023/07/14 12:00:22;;;;;;;0.25;0.25;;;21.40;1.00;;;;;;4827343;29;20057;-86
2023/07/14 12:03:02;;;;;;;0.30;0.20;;;21.40;99.90;;;;;;4842053;29;20050;-86
2023/07/14 12:05:38;;;;;;;0.35;0.30;;;21.30;99.90;;;;;;4827214;29;20053;-87
2023/07/14 12:08:13;;;;;;;0.73;0.38;;;21.30;1.00;;;;;;4826779;29;20514;-86
2023/07/14 12:10:39;;;;;;;0.40;0.40;;;21.30;1.00;;;;;;4826787;29;20058;-87
2023/07/14 12:13:24;;;;;;;0.43;0.43;;;21.50;99.90;;;;;;4826959;29;20054;-87
2023/07/14 12:15:56;;;;;;;0.30;0.30;;;21.60;99.90;;;;;;4826746;29;20148;-86
2023/07/14 12:18:57;;;;;;;0.95;0.40;;;21.60;99.90;;;;;;4826378;29;20050;-87
2023/07/14 12:21:53;;;;;;;;;;;;;;;;;;;;;
2023/07/14 12:24:22;;;;;;;0.20;0.20;;;20.50;1.00;;;;;;4822291;29;20054;-87
2023/07/14 12:26:47;;;;;;;0.40;0.30;;;21.40;94.90;;;;;;4826071;29;20065;-86
2023/07/14 12:29:16;;;;;;;0.63;0.63;;;21.40;99.90;;;;;;4826162;29;20057;-87
2023/07/14 12:31:50;;;;;;;0.30;0.30;;;21.00;99.90;;;;;;4826479;29;20053;-87
2023/07/14 12:34:18;;;;;;;0.55;0.35;;;21.50;1.00;;;;;;4826373;29;20400;-86
2023/07/14 12:36:45;;;;;;;0.30;0.30;;;21.60;99.90;;;;;;4811102;29;20054;-87
2023/07/14 12:39:10;;;;;;;;;;;21.60;25.30;;;;;;4826800;29;20052;-87
2023/07/14 12:41:43;;;;;;;0.22;0.22;;;21.60;99.90;;;;;;4826280;29;20014;-88
2023/07/14 12:44:34;;;;;;;0.20;0.20;;;21.70;99.90;;;;;;4811330;29;20049;-87
2023/07/14 12:47:00;;;;;;;0.68;0.60;;;21.70;99.90;;;;;;4825995;29;20507;-87
2023/07/14 12:49:40;;;;;;;0.40;0.20;;;21.70;1.00;;;;;;4810920;29;20088;-87
2023/07/14 12:52:13;;;;;;;0.17;0.17;;;21.70;99.90;;;;;;4811370;29;20053;-87
2023/07/14 12:54:43;;;;;;;0.47;0.20;;;21.70;1.00;;;;;;4826208;29;20114;-87
2023/07/14 12:57:12;;;;;;;0.38;0.25;;;21.70;1.00;;;;;;4811279;29;20046;-87
2023/07/14 12:59:45;;;;;;;0.40;0.40;;;21.70;98.60;;;;;;4826083;29;20057;-88
2023/07/14 13:02:14;;;;;;;0.52;0.35;;;21.80;99.90;;;;;;4826029;29;20050;-87
2023/07/14 13:04:40;;;;;;;0.38;0.38;;;21.90;99.90;;;;;;4826097;29;20105;-88
2023/07/14 13:07:21;;;;;;;1.02;0.77;;;21.90;96.80;;;;;;4810970;29;20045;-87
2023/07/14 13:10:20;;;;;;;0.30;0.28;;;21.90;1.00;;;;;;4825725;29;20106;-86
2023/07/14 13:12:56;;;;;;;0.22;0.22;;;21.80;99.90;;;;;;4806345;29;20065;-88
2023/07/14 13:15:31;;;;;;;0.52;0.52;;;21.80;72.20;;;;;;4811018;29;20143;-87
2023/07/14 13:18:08;;;;;;;0.40;0.40;;;21.80;1.00;;;;;;4825867;29;20403;-87